Terminal Aerodrome Forecast
Issued by NWS Topeka, KS

Home | Current Version | Previous Version | Graphics & Text | Print | Product List | Glossary On
Versions: 1 2 3 4 5 6 7 8 9 10 11 12 13 14
000
FTUS43 KTOP 140900 AAA
TAFTOP
TAF AMD
KTOP 140949Z 1410/1506 33020G30KT 6SM BR OVC015
     FM141000 34018G28KT 3SM -SN OVC015
      TEMPO 1410/1412 1SM -SN OVC012
     FM141400 34015G22KT P6SM BKN035=

USA.gov is the U.S. government's official web portal to all federal, state and local government web resources and services.